Time;durP1;ratioP1;P1;durP2;ratioP2;P2;SDS_P1;SDS_P2;PMS_P1;PMS_P2;Temp;Humidity;BMP_temperature;BMP_pressure;BME280_temperature;BME280_humidity;BME280_pressure;Samples;Min_cycle;Max_cycle;Signal;HPM_P1;HPM_P2
2023/09/15 00:01:38;;;;;;;3.10;2.65;;;;;;;21.84;56.63;101966.91;4983214;28;20053;-59
2023/09/15 00:04:06;;;;;;;2.92;2.55;;;;;;;21.83;56.83;101957.06;4985043;28;20034;-60
2023/09/15 00:06:32;;;;;;;2.95;2.65;;;;;;;21.82;56.40;101956.22;4990523;28;20030;-60
2023/09/15 00:08:57;;;;;;;4.25;2.35;;;;;;;21.83;56.38;101957.06;4987627;28;20034;-59
2023/09/15 00:11:23;;;;;;;4.20;2.58;;;;;;;21.82;56.74;101952.66;4981428;28;20400;-59
2023/09/15 00:13:48;;;;;;;2.65;2.38;;;;;;;21.82;56.34;101947.25;4992679;28;20029;-59
2023/09/15 00:16:14;;;;;;;2.65;2.40;;;;;;;21.81;56.60;101954.50;4979629;28;20031;-60
2023/09/15 00:18:41;;;;;;;2.60;2.33;;;;;;;21.81;56.19;101948.22;4982983;28;20028;-59
2023/09/15 00:21:09;;;;;;;3.22;2.38;;;;;;;21.79;56.68;101945.66;4987239;28;20039;-60
2023/09/15 00:23:37;;;;;;;2.47;2.28;;;;;;;21.79;56.27;101945.66;4985270;28;20378;-60
2023/09/15 00:26:03;;;;;;;2.63;2.42;;;;;;;21.78;56.20;101943.97;4987822;28;20047;-60
2023/09/15 00:28:29;;;;;;;3.72;2.65;;;;;;;21.78;56.35;101941.25;4983178;28;20026;-60
2023/09/15 00:30:55;;;;;;;2.83;2.63;;;;;;;21.78;56.24;101943.97;4984544;28;20528;-60
2023/09/15 00:33:20;;;;;;;2.75;2.55;;;;;;;21.77;56.71;101942.22;4986449;28;20541;-60
2023/09/15 00:35:47;;;;;;;3.05;2.28;;;;;;;21.77;56.61;101936.81;4987633;28;20126;-60
2023/09/15 00:38:13;;;;;;;3.30;2.50;;;;;;;21.75;56.35;101932.53;4986317;28;20419;-59
2023/09/15 00:40:39;;;;;;;2.78;2.40;;;;;;;21.75;56.58;101933.38;4983662;28;20022;-59
2023/09/15 00:43:04;;;;;;;2.55;2.35;;;;;;;21.74;56.22;101926.28;4981412;28;20106;-59
2023/09/15 00:45:30;;;;;;;2.33;2.13;;;;;;;21.74;56.07;101931.69;4984967;28;20121;-59
2023/09/15 00:47:57;;;;;;;5.00;2.40;;;;;;;21.72;56.30;101922.81;4987232;28;20022;-59
2023/09/15 00:50:29;;;;;;;2.45;2.25;;;;;;;21.72;56.44;101938.25;4982228;28;20030;-65
2023/09/15 00:53:17;;;;;;;2.58;2.38;;;;;;;21.75;56.25;101927.97;4991078;28;20018;-59
2023/09/15 00:55:43;;;;;;;3.35;2.60;;;;;;;21.71;56.05;101923.84;4981160;28;20611;-59
2023/09/15 00:58:11;;;;;;;3.63;2.85;;;;;;;21.72;56.07;101924.69;4983752;28;20076;-59
2023/09/15 01:00:41;;;;;;;2.55;2.35;;;;;;;21.71;56.14;101923.84;4986717;28;20023;-59
2023/09/15 01:03:08;;;;;;;3.05;2.42;;;;;;;21.71;56.14;101925.69;4984160;28;20035;-59
2023/09/15 01:05:34;;;;;;;3.13;2.00;;;;;;;21.70;56.25;101921.28;4986975;28;20067;-59
2023/09/15 01:08:00;;;;;;;3.00;2.63;;;;;;;21.69;56.11;101919.56;4984337;28;20054;-59
2023/09/15 01:10:26;;;;;;;2.38;2.17;;;;;;;21.67;56.03;101919.72;4986839;28;20034;-59
2023/09/15 01:12:53;;;;;;;2.60;2.40;;;;;;;21.67;55.91;101922.41;4987390;28;20081;-59
2023/09/15 01:15:33;;;;;;;2.30;2.10;;;;;;;21.67;56.12;101908.88;4978348;28;20038;-59
2023/09/15 01:18:22;;;;;;;3.33;2.72;;;;;;;21.69;56.12;101914.16;4980200;28;20460;-60
2023/09/15 01:20:50;;;;;;;2.15;1.95;;;;;;;21.65;56.52;101906.31;4988685;28;20034;-60
2023/09/15 01:23:34;;;;;;;2.63;2.33;;;;;;;21.67;56.34;101912.44;4980115;28;20037;-59
2023/09/15 01:26:21;;;;;;;2.75;2.28;;;;;;;21.66;55.94;101912.56;4988253;28;20147;-60
2023/09/15 01:29:05;;;;;;;2.33;2.13;;;;;;;21.67;55.89;101908.88;4982435;28;20061;-59
2023/09/15 01:31:33;;;;;;;2.75;2.25;;;;;;;21.64;56.08;101903.72;4978817;28;20050;-60
2023/09/15 01:33:58;;;;;;;2.80;2.60;;;;;;;21.63;56.31;101897.47;4987029;28;20068;-59
2023/09/15 01:36:24;;;;;;;3.22;2.38;;;;;;;21.62;56.12;101900.31;4987087;28;20472;-59
2023/09/15 01:38:49;;;;;;;2.72;2.05;;;;;;;21.62;55.72;101897.59;4986121;28;20045;-60
2023/09/15 01:41:14;;;;;;;2.33;2.13;;;;;;;21.61;56.49;101895.88;4983864;28;20030;-59
2023/09/15 01:43:40;;;;;;;2.15;2.05;;;;;;;21.62;55.81;101892.19;4985617;28;20100;-60
2023/09/15 01:46:05;;;;;;;2.63;2.20;;;;;;;21.62;56.13;101889.47;4985182;28;20042;-59
2023/09/15 01:48:32;;;;;;;2.20;2.00;;;;;;;21.59;55.94;101896.03;4981670;28;20106;-59
2023/09/15 01:50:58;;;;;;;2.60;2.40;;;;;;;21.59;56.02;101884.31;4987572;28;20034;-60
2023/09/15 01:53:25;;;;;;;2.25;2.00;;;;;;;21.59;55.70;101885.19;4979886;28;20076;-60
2023/09/15 01:55:51;;;;;;;2.20;2.00;;;;;;;21.57;56.06;101884.50;4985611;28;20050;-59
2023/09/15 01:58:18;;;;;;;2.13;1.92;;;;;;;21.58;56.16;101885.34;4986351;28;20038;-60
2023/09/15 02:00:44;;;;;;;2.40;2.20;;;;;;;21.57;55.78;101880.91;4983627;28;20434;-60
2023/09/15 02:03:09;;;;;;;2.55;2.35;;;;;;;21.58;55.88;101890.75;4987506;28;20058;-59
2023/09/15 02:05:35;;;;;;;2.25;2.05;;;;;;;21.57;55.62;101883.63;4982268;28;20027;-60
2023/09/15 02:08:00;;;;;;;3.17;2.30;;;;;;;21.55;55.49;101883.78;4990215;28;20048;-59
2023/09/15 02:10:26;;;;;;;2.10;1.70;;;;;;;21.55;56.11;101880.19;4986677;28;20030;-59
2023/09/15 02:12:51;;;;;;;2.33;2.00;;;;;;;21.55;55.47;101888.31;4979787;28;20045;-60
2023/09/15 02:15:17;;;;;;;2.03;1.92;;;;;;;21.55;55.87;101882.91;4990814;28;20417;-59
2023/09/15 02:17:43;;;;;;;2.53;2.33;;;;;;;21.54;56.03;101881.22;4977403;28;20031;-60
2023/09/15 02:20:11;;;;;;;2.17;1.98;;;;;;;21.53;56.04;101891.19;4983364;28;20042;-60
2023/09/15 02:22:40;;;;;;;3.35;2.60;;;;;;;21.53;55.44;101884.91;4991925;28;20026;-59
2023/09/15 02:25:05;;;;;;;3.20;2.00;;;;;;;21.53;55.86;101885.75;4983322;28;20156;-59
2023/09/15 02:27:30;;;;;;;2.30;2.00;;;;;;;21.52;55.60;101883.22;4993720;28;20113;-60
2023/09/15 02:29:56;;;;;;;2.22;2.03;;;;;;;21.50;55.93;101880.66;5002011;28;20105;-59
2023/09/15 02:32:21;;;;;;;2.17;1.98;;;;;;;21.51;55.51;101876.06;4990515;28;20728;-60
2023/09/15 02:34:47;;;;;;;2.65;2.10;;;;;;;21.50;55.56;101872.50;4991709;28;20105;-60
2023/09/15 02:37:14;;;;;;;2.70;2.35;;;;;;;21.51;55.99;101876.06;4988559;28;20030;-59
2023/09/15 02:39:40;;;;;;;2.38;1.92;;;;;;;21.50;55.32;101868.97;4990819;28;20421;-60
2023/09/15 02:42:06;;;;;;;2.30;2.08;;;;;;;21.49;55.77;101876.22;4988660;28;20037;-60
2023/09/15 02:44:32;;;;;;;1.95;1.83;;;;;;;21.48;55.57;101867.22;4984413;28;20101;-59
2023/09/15 02:46:57;;;;;;;2.22;2.03;;;;;;;21.48;55.83;101869.09;4990296;28;20038;-59
2023/09/15 02:49:23;;;;;;;2.22;2.03;;;;;;;21.47;55.64;101868.22;4985072;28;20045;-60
2023/09/15 02:51:48;;;;;;;2.20;2.00;;;;;;;21.46;55.47;101869.25;4987102;28;20105;-59
2023/09/15 02:54:14;;;;;;;3.28;2.10;;;;;;;21.46;55.08;101866.53;4990501;28;20034;-59
2023/09/15 02:56:39;;;;;;;2.20;2.00;;;;;;;21.46;55.46;101863.81;4985201;28;20114;-60
2023/09/15 02:59:04;;;;;;;2.30;2.10;;;;;;;21.45;55.30;101870.22;4990265;28;20034;-60
2023/09/15 03:01:30;;;;;;;2.17;2.00;;;;;;;21.45;55.60;101866.66;4988636;28;20031;-60
2023/09/15 03:03:55;;;;;;;2.40;1.90;;;;;;;21.44;55.31;101865.81;4982733;28;20122;-60
2023/09/15 03:06:22;;;;;;;1.90;1.80;;;;;;;21.43;55.34;101861.34;4992826;28;20041;-60
2023/09/15 03:08:47;;;;;;;1.80;1.70;;;;;;;21.43;55.15;101855.94;4980100;28;20226;-59
2023/09/15 03:11:16;;;;;;;2.03;1.90;;;;;;;21.42;55.21;101856.94;4991651;28;20081;-59
2023/09/15 03:13:42;;;;;;;1.83;1.73;;;;;;;21.42;55.56;101862.38;4987657;28;20038;-59
2023/09/15 03:16:14;;;;;;;2.85;2.50;;;;;;;21.42;55.23;101867.78;4984201;28;20385;-59
2023/09/15 03:18:39;;;;;;;2.30;2.10;;;;;;;21.41;55.39;101859.81;4990462;28;20366;-60
2023/09/15 03:21:05;;;;;;;1.92;1.67;;;;;;;21.40;55.34;101864.38;4987710;28;20031;-61
2023/09/15 03:23:31;;;;;;;2.97;2.10;;;;;;;21.40;55.06;101866.19;4989167;28;20027;-59
2023/09/15 03:26:03;;;;;;;1.95;1.85;;;;;;;21.41;55.27;101859.81;4998018;28;20081;-60
2023/09/15 03:28:33;;;;;;;2.00;1.80;;;;;;;21.38;55.40;101850.13;4984853;28;20105;-60
2023/09/15 03:31:00;;;;;;;2.88;1.83;;;;;;;21.38;55.56;101855.53;4982254;28;20116;-60
2023/09/15 03:33:25;;;;;;;2.00;1.80;;;;;;;21.37;55.26;101848.38;4989578;28;20046;-60
2023/09/15 03:35:51;;;;;;;2.03;1.92;;;;;;;21.37;55.28;101848.38;4987439;28;20480;-60
2023/09/15 03:38:16;;;;;;;2.53;2.20;;;;;;;21.37;54.76;101847.53;4987485;28;20361;-60
2023/09/15 03:40:42;;;;;;;2.65;2.30;;;;;;;21.36;54.85;101852.13;4989529;28;20030;-57
2023/09/15 03:43:07;;;;;;;2.40;1.95;;;;;;;21.35;55.46;101844.97;4981513;28;20511;-58
2023/09/15 03:45:34;;;;;;;2.13;1.92;;;;;;;21.34;54.96;101843.25;4992107;28;20054;-57
2023/09/15 03:47:59;;;;;;;2.80;2.00;;;;;;;21.34;55.47;101837.84;4981768;28;20121;-58
2023/09/15 03:50:25;;;;;;;1.73;1.63;;;;;;;21.34;55.29;101850.53;4981750;28;20092;-57
2023/09/15 03:52:51;;;;;;;2.15;1.90;;;;;;;21.33;55.17;101841.56;4989074;28;20085;-58
2023/09/15 03:55:17;;;;;;;1.85;1.73;;;;;;;21.33;55.24;101841.56;4982042;28;20031;-57
2023/09/15 03:57:42;;;;;;;3.55;2.15;;;;;;;21.32;55.08;101839.00;4985379;28;20060;-57
2023/09/15 04:00:15;;;;;;;4.60;2.10;;;;;;;21.32;54.76;101839.84;4986272;28;20548;-60
2023/09/15 04:02:40;;;;;;;2.40;2.10;;;;;;;21.32;54.71;101839.84;4988667;28;20396;-58
2023/09/15 04:05:06;;;;;;;1.88;1.70;;;;;;;21.31;55.13;101834.59;4990542;28;20042;-57
2023/09/15 04:07:32;;;;;;;2.63;1.90;;;;;;;21.30;54.95;101839.13;4987696;28;20374;-57
2023/09/15 04:09:57;;;;;;;2.10;1.90;;;;;;;21.29;54.71;101846.41;4985828;28;20065;-57
2023/09/15 04:12:23;;;;;;;2.65;1.98;;;;;;;21.29;54.54;101840.13;4988939;28;20468;-57
2023/09/15 04:14:48;;;;;;;2.72;2.35;;;;;;;21.27;54.73;101832.16;4984679;28;20030;-57
2023/09/15 04:17:13;;;;;;;2.25;1.92;;;;;;;21.27;54.95;101834.00;4985772;28;20035;-57
2023/09/15 04:19:39;;;;;;;1.88;1.77;;;;;;;21.27;55.14;101834.00;4986103;28;20034;-58
2023/09/15 04:22:04;;;;;;;2.00;1.80;;;;;;;21.25;54.55;101831.44;4986556;28;20038;-60
2023/09/15 04:24:30;;;;;;;1.80;1.70;;;;;;;21.25;54.98;101827.88;4987672;28;20108;-60
2023/09/15 04:26:55;;;;;;;2.00;1.80;;;;;;;21.24;55.01;101826.16;4987107;28;20030;-60
2023/09/15 04:29:21;;;;;;;1.70;1.60;;;;;;;21.25;55.09;101827.88;4983016;28;20082;-60
2023/09/15 04:31:46;;;;;;;2.40;2.20;;;;;;;21.24;54.68;101826.16;4987112;28;20026;-60
2023/09/15 04:34:12;;;;;;;1.98;1.77;;;;;;;21.23;54.56;101835.31;4983804;28;20028;-58
2023/09/15 04:36:37;;;;;;;2.08;1.80;;;;;;;21.22;55.07;101822.75;4980090;28;20110;-58
2023/09/15 04:39:04;;;;;;;2.10;1.90;;;;;;;21.22;54.68;101822.75;4989441;28;20038;-58
2023/09/15 04:41:29;;;;;;;2.10;1.90;;;;;;;21.21;54.83;101821.03;4986977;28;20053;-57
2023/09/15 04:43:56;;;;;;;3.10;1.98;;;;;;;21.21;54.30;101821.03;4989250;28;20023;-57
2023/09/15 04:46:22;;;;;;;2.20;2.00;;;;;;;21.20;54.77;101824.75;4985527;28;20042;-58
2023/09/15 04:48:47;;;;;;;1.92;1.83;;;;;;;21.19;54.71;101823.03;4981688;28;20133;-57
2023/09/15 04:51:13;;;;;;;2.22;1.88;;;;;;;21.19;54.78;101823.91;4991004;28;20060;-58
2023/09/15 04:53:39;;;;;;;2.10;1.90;;;;;;;21.19;54.98;101823.91;4987620;28;20030;-55
2023/09/15 04:56:05;;;;;;;2.03;1.77;;;;;;;21.19;54.85;101833.84;4983680;28;20026;-54
2023/09/15 04:58:31;;;;;;;2.13;1.92;;;;;;;21.19;54.94;101832.03;4987142;28;20026;-54
2023/09/15 05:00:59;;;;;;;2.15;1.95;;;;;;;21.18;54.49;101832.16;4982711;28;20079;-54
2023/09/15 05:03:25;;;;;;;2.35;2.10;;;;;;;21.17;54.37;101838.56;4993342;28;20026;-54
2023/09/15 05:05:51;;;;;;;2.17;1.98;;;;;;;21.16;54.47;101828.75;4984048;28;20103;-54
2023/09/15 05:08:18;;;;;;;1.58;1.48;;;;;;;21.15;54.95;101832.44;4984562;28;20524;-57
2023/09/15 05:10:46;;;;;;;2.10;1.90;;;;;;;21.15;55.06;101837.84;4989487;28;20030;-57
2023/09/15 05:13:11;;;;;;;2.20;2.03;;;;;;;21.14;54.63;101844.28;4981999;28;20890;-57
2023/09/15 05:15:37;;;;;;;2.03;1.83;;;;;;;21.14;54.76;101847.00;4985599;28;20038;-57
2023/09/15 05:18:03;;;;;;;2.22;2.03;;;;;;;21.13;54.70;101837.16;4982456;28;20462;-57
2023/09/15 05:20:28;;;;;;;1.90;1.65;;;;;;;21.13;54.63;101839.84;4988399;28;20054;-57
2023/09/15 05:22:54;;;;;;;1.92;1.73;;;;;;;21.12;54.58;101849.00;4984788;28;20109;-56
2023/09/15 05:25:19;;;;;;;1.70;1.60;;;;;;;21.12;54.62;101849.00;4986687;28;20045;-56
2023/09/15 05:27:45;;;;;;;2.08;1.88;;;;;;;21.11;54.54;101849.97;4984566;28;20053;-56
2023/09/15 05:30:11;;;;;;;1.75;1.65;;;;;;;21.11;54.45;101855.38;4989579;28;20108;-56
2023/09/15 05:32:36;;;;;;;2.38;1.95;;;;;;;21.11;54.37;101852.69;4987034;28;20054;-56
2023/09/15 05:35:02;;;;;;;2.10;1.80;;;;;;;21.09;54.20;101845.56;4980504;28;20102;-56
2023/09/15 05:37:27;;;;;;;1.98;1.83;;;;;;;21.09;54.64;101851.00;4991474;28;20542;-56
2023/09/15 05:39:53;;;;;;;2.10;1.70;;;;;;;21.09;55.07;101850.13;4980347;28;20488;-56
2023/09/15 05:42:18;;;;;;;1.98;1.80;;;;;;;21.09;54.35;101851.00;4989179;28;20029;-57
2023/09/15 05:44:43;;;;;;;2.20;2.00;;;;;;;21.09;54.61;101858.25;4984077;28;20025;-57
2023/09/15 05:47:09;;;;;;;1.92;1.73;;;;;;;21.07;54.48;101847.53;4988582;28;20121;-56
2023/09/15 05:49:34;;;;;;;2.40;1.80;;;;;;;21.08;54.68;101848.41;4981973;28;20027;-56
2023/09/15 05:52:00;;;;;;;2.35;1.90;;;;;;;21.06;54.47;101848.56;4985377;28;20047;-57
2023/09/15 05:54:26;;;;;;;2.00;1.80;;;;;;;21.06;54.42;101851.25;4983151;28;20031;-56
2023/09/15 05:56:52;;;;;;;1.98;1.73;;;;;;;21.06;54.48;101855.84;4988890;28;20044;-58
2023/09/15 05:59:17;;;;;;;1.95;1.80;;;;;;;21.05;54.37;101852.25;5004768;28;20022;-56
2023/09/15 06:01:46;;;;;;;2.03;1.90;;;;;;;21.05;54.51;101854.09;4989904;28;20109;-56
2023/09/15 06:04:15;;;;;;;1.90;1.58;;;;;;;21.04;54.79;101853.25;4990674;28;20148;-56
2023/09/15 06:06:40;;;;;;;1.83;1.73;;;;;;;21.03;54.18;101846.13;4989072;28;20041;-56
2023/09/15 06:09:06;;;;;;;1.77;1.67;;;;;;;21.04;54.62;101855.13;4986871;28;20034;-56
2023/09/15 06:11:31;;;;;;;4.97;1.80;;;;;;;21.02;54.38;101849.84;4992841;28;20037;-56
2023/09/15 06:13:56;;;;;;;2.38;1.75;;;;;;;21.03;54.67;101850.69;4990749;28;20384;-56
2023/09/15 06:16:22;;;;;;;2.33;2.13;;;;;;;21.03;54.64;101861.53;4990042;28;20452;-57
2023/09/15 06:18:47;;;;;;;2.03;1.83;;;;;;;21.01;54.59;101861.66;4991905;28;20093;-64
2023/09/15 06:21:14;;;;;;;3.05;2.00;;;;;;;21.02;54.03;101859.81;4983445;28;20073;-55
2023/09/15 06:23:39;;;;;;;2.30;2.10;;;;;;;21.00;54.56;101857.25;4994786;28;20042;-56
2023/09/15 06:26:04;;;;;;;2.00;1.80;;;;;;;21.01;53.94;101863.50;4985951;28;20038;-56
2023/09/15 06:28:30;;;;;;;1.80;1.70;;;;;;;21.00;54.41;101859.97;4992985;28;20034;-56
2023/09/15 06:30:55;;;;;;;2.05;1.90;;;;;;;21.00;54.56;101862.66;4990022;28;20029;-56
2023/09/15 06:33:21;;;;;;;2.50;2.00;;;;;;;21.00;54.42;101859.09;4987443;28;20864;-56
2023/09/15 06:35:47;;;;;;;2.40;1.90;;;;;;;20.99;54.44;101854.69;4993704;28;20050;-56
2023/09/15 06:38:12;;;;;;;1.98;1.80;;;;;;;20.99;54.58;101852.81;4986570;28;20031;-56
2023/09/15 06:40:38;;;;;;;2.13;1.95;;;;;;;20.98;54.45;101848.41;4986307;28;20030;-56
2023/09/15 06:43:06;;;;;;;1.70;1.60;;;;;;;20.98;54.10;101850.25;4991329;28;20426;-56
2023/09/15 06:45:31;;;;;;;2.03;1.77;;;;;;;20.97;54.38;101849.41;4988727;28;20072;-56
2023/09/15 06:47:59;;;;;;;1.83;1.73;;;;;;;20.97;54.43;101852.09;4984431;28;20041;-56
2023/09/15 06:50:24;;;;;;;2.85;2.03;;;;;;;20.96;54.05;101839.59;4990591;28;20121;-56
2023/09/15 06:52:49;;;;;;;1.40;1.30;;;;;;;20.96;54.00;101839.59;4991681;28;20038;-60
2023/09/15 06:55:15;;;;;;;3.22;1.67;;;;;;;20.98;54.10;101836.72;4993362;28;20100;-56
2023/09/15 06:57:40;;;;;;;2.00;1.80;;;;;;;20.97;54.15;101841.28;4992452;28;20038;-56
2023/09/15 07:00:07;;;;;;;2.25;1.83;;;;;;;20.97;54.43;101838.56;4988371;28;20065;-56
2023/09/15 07:02:32;;;;;;;1.70;1.60;;;;;;;20.96;54.42;101839.59;4989691;28;20026;-56
2023/09/15 07:04:57;;;;;;;2.25;1.90;;;;;;;20.97;53.94;101832.31;4984567;28;20057;-56
2023/09/15 07:07:23;;;;;;;3.05;1.80;;;;;;;20.96;54.00;101836.88;4989500;28;20037;-56
2023/09/15 07:09:50;;;;;;;2.70;2.10;;;;;;;20.97;54.02;101843.97;4988416;28;20102;-56
2023/09/15 07:12:16;;;;;;;1.90;1.70;;;;;;;20.96;54.25;101836.88;4991033;28;20030;-56
2023/09/15 07:14:41;;;;;;;2.28;1.90;;;;;;;20.95;53.93;101837.00;4994395;28;20071;-56
2023/09/15 07:17:07;;;;;;;2.03;1.83;;;;;;;20.95;54.22;101835.16;4986658;28;20061;-56
2023/09/15 07:19:32;;;;;;;1.80;1.65;;;;;;;20.96;54.14;101831.47;4991369;28;20476;-56
2023/09/15 07:21:57;;;;;;;1.92;1.80;;;;;;;20.96;53.74;101833.28;4991822;28;20038;-56
2023/09/15 07:24:23;;;;;;;2.03;1.80;;;;;;;20.96;53.69;101828.75;4985457;28;20113;-59
2023/09/15 07:26:48;;;;;;;2.45;1.83;;;;;;;20.96;54.15;101823.34;4986273;28;20098;-56
2023/09/15 07:29:14;;;;;;;1.63;1.50;;;;;;;20.96;53.76;101827.88;4993024;28;20018;-55
2023/09/15 07:31:42;;;;;;;2.13;1.70;;;;;;;20.95;54.04;101821.63;4986123;28;20042;-56
2023/09/15 07:34:08;;;;;;;2.05;1.85;;;;;;;20.94;54.25;101819.91;4993614;28;20026;-56
2023/09/15 07:36:34;;;;;;;5.88;1.80;;;;;;;20.94;53.71;101814.47;4986139;28;20122;-56
2023/09/15 07:38:59;;;;;;;1.60;1.50;;;;;;;20.95;54.22;101818.06;4990569;28;20109;-56
2023/09/15 07:41:24;;;;;;;1.80;1.70;;;;;;;20.95;53.79;101810.78;4991007;28;20501;-56
2023/09/15 07:43:53;;;;;;;1.65;1.55;;;;;;;20.95;54.16;101810.78;4986410;28;20468;-56
2023/09/15 07:46:19;;;;;;;1.90;1.77;;;;;;;20.95;54.14;101818.91;4983824;28;20050;-56
2023/09/15 07:48:44;;;;;;;1.77;1.55;;;;;;;20.95;54.07;101816.19;4989698;28;20113;-57
2023/09/15 07:51:11;;;;;;;2.17;1.80;;;;;;;20.95;53.98;101804.53;4988331;28;20101;-57
2023/09/15 07:53:37;;;;;;;1.90;1.75;;;;;;;20.96;53.86;101812.50;4988282;28;20120;-56
2023/09/15 07:56:03;;;;;;;2.30;1.63;;;;;;;20.96;53.75;101809.81;4988768;28;20148;-57
2023/09/15 07:58:28;;;;;;;2.00;1.60;;;;;;;20.95;54.13;101810.78;4987418;28;20475;-56
2023/09/15 08:00:54;;;;;;;2.25;1.70;;;;;;;20.95;53.80;101799.97;4988376;28;20030;-56
2023/09/15 08:03:19;;;;;;;2.70;1.83;;;;;;;20.96;53.94;101812.50;4983862;28;20031;-56
2023/09/15 08:05:45;;;;;;;2.97;1.40;;;;;;;20.97;54.11;101814.22;4990929;28;20068;-56
2023/09/15 08:08:10;;;;;;;1.60;1.50;;;;;;;20.97;53.83;101806.09;4986720;28;20030;-56
2023/09/15 08:10:36;;;;;;;1.88;1.65;;;;;;;20.98;54.03;101801.50;4982436;28;20093;-56
2023/09/15 08:13:01;;;;;;;2.25;1.90;;;;;;;20.97;54.00;101802.53;4994300;28;20034;-56
2023/09/15 08:15:27;;;;;;;1.60;1.50;;;;;;;20.98;53.72;101802.41;4984192;28;20513;-56
2023/09/15 08:17:53;;;;;;;1.58;1.45;;;;;;;20.96;54.06;101798.97;4991618;28;20034;-56
2023/09/15 08:20:19;;;;;;;1.45;1.35;;;;;;;20.97;53.85;101797.97;4987529;28;20030;-55
2023/09/15 08:22:45;;;;;;;2.05;1.77;;;;;;;20.97;53.68;101803.38;4985747;28;20038;-56
2023/09/15 08:25:14;;;;;;;1.45;1.35;;;;;;;20.97;53.90;101799.81;4984285;28;20034;-56
2023/09/15 08:27:40;;;;;;;1.50;1.40;;;;;;;20.96;53.69;101801.69;4991454;28;20080;-56
2023/09/15 08:30:08;;;;;;;2.13;1.77;;;;;;;20.96;54.15;101800.81;4984603;28;20038;-56
2023/09/15 08:32:34;;;;;;;2.22;1.40;;;;;;;20.97;54.15;101797.13;4983855;28;20361;-56
2023/09/15 08:35:00;;;;;;;1.67;1.58;;;;;;;20.96;53.82;101795.38;4985705;28;20029;-56
2023/09/15 08:37:25;;;;;;;3.85;1.55;;;;;;;20.96;53.84;101796.28;4988597;28;20061;-56
2023/09/15 08:39:50;;;;;;;1.50;1.40;;;;;;;20.95;54.18;101793.69;4988866;28;20113;-56
2023/09/15 08:42:23;;;;;;;2.75;1.70;;;;;;;20.96;53.79;101801.69;4988942;28;20026;-56
2023/09/15 08:44:50;;;;;;;1.70;1.55;;;;;;;20.96;53.88;101806.22;4990471;28;20116;-56
2023/09/15 08:47:17;;;;;;;2.03;1.50;;;;;;;20.95;54.14;101799.97;4988447;28;20034;-56
2023/09/15 08:49:44;;;;;;;2.13;1.52;;;;;;;20.97;54.33;101800.66;4983363;28;20153;-56
2023/09/15 08:52:11;;;;;;;1.88;1.63;;;;;;;20.96;53.85;101790.84;4990364;28;20030;-56
2023/09/15 08:54:37;;;;;;;1.58;1.40;;;;;;;20.97;54.21;101795.25;4985797;28;20033;-56
2023/09/15 08:57:02;;;;;;;1.73;1.63;;;;;;;20.97;53.83;101787.13;4982029;28;20046;-57
2023/09/15 08:59:28;;;;;;;1.55;1.45;;;;;;;20.97;54.25;101787.13;4990089;28;20539;-57
2023/09/15 09:01:53;;;;;;;1.48;1.38;;;;;;;20.97;54.34;101792.53;4983249;28;20022;-56
2023/09/15 09:04:19;;;;;;;1.40;1.30;;;;;;;20.97;54.33;101781.72;4991547;28;20026;-57
2023/09/15 09:06:45;;;;;;;1.60;1.50;;;;;;;20.97;54.15;101780.88;4985907;28;20045;-56
2023/09/15 09:09:13;;;;;;;1.40;1.30;;;;;;;20.97;53.94;101784.44;4982353;28;20038;-56
2023/09/15 09:11:39;;;;;;;1.55;1.40;;;;;;;20.98;54.22;101786.16;4992260;28;20487;-57
2023/09/15 09:14:11;;;;;;;1.70;1.20;;;;;;;20.98;53.89;101775.31;4982162;28;20031;-57
2023/09/15 09:16:37;;;;;;;1.85;1.73;;;;;;;20.99;53.91;101789.69;4983155;28;20035;-57
2023/09/15 09:19:06;;;;;;;1.42;1.33;;;;;;;20.98;53.97;101783.44;4985194;28;20062;-56
2023/09/15 09:21:32;;;;;;;1.50;1.40;;;;;;;20.98;54.40;101783.44;4985618;28;20121;-56
2023/09/15 09:23:58;;;;;;;1.55;1.42;;;;;;;20.99;54.39;101785.13;4987564;28;20122;-55
2023/09/15 09:26:23;;;;;;;1.40;1.27;;;;;;;20.99;54.26;101782.44;4987738;28;20107;-55
2023/09/15 09:28:49;;;;;;;1.60;1.42;;;;;;;20.99;54.00;101779.72;4989425;28;20037;-56
2023/09/15 09:31:15;;;;;;;1.80;1.40;;;;;;;21.00;54.45;101775.16;4997348;28;20415;-56
2023/09/15 09:33:44;;;;;;;1.67;1.52;;;;;;;21.00;54.41;101775.16;4995414;28;20092;-56
2023/09/15 09:36:13;;;;;;;1.50;1.35;;;;;;;20.99;54.08;101768.88;4988686;28;20453;-56
2023/09/15 09:38:44;;;;;;;1.50;1.40;;;;;;;20.99;54.21;101768.88;4996927;28;20101;-56
2023/09/15 09:41:11;;;;;;;1.70;1.13;;;;;;;21.01;54.21;101772.31;4992259;28;20483;-56
2023/09/15 09:43:38;;;;;;;1.30;1.20;;;;;;;21.00;54.12;101773.31;4995052;28;20477;-56
2023/09/15 09:46:05;;;;;;;1.50;1.40;;;;;;;21.01;54.14;101769.59;4995399;28;20449;-56
2023/09/15 09:48:33;;;;;;;1.85;1.63;;;;;;;21.01;53.95;101766.03;4987685;28;20125;-56
2023/09/15 09:50:59;;;;;;;1.60;1.50;;;;;;;21.02;54.40;101768.63;4998307;28;20373;-56
2023/09/15 09:53:30;;;;;;;1.48;1.30;;;;;;;21.01;54.21;101761.47;4987266;28;20083;-56
2023/09/15 09:56:00;;;;;;;1.40;1.30;;;;;;;21.02;54.05;101763.19;4990002;28;20059;-56
2023/09/15 09:58:26;;;;;;;1.60;1.50;;;;;;;21.04;54.62;101763.91;4992499;28;20029;-56
2023/09/15 10:00:52;;;;;;;1.98;1.40;;;;;;;21.02;54.62;101757.78;4991436;28;20030;-56
2023/09/15 10:03:18;;;;;;;1.42;1.30;;;;;;;21.03;54.14;101769.47;4993097;28;20028;-56
2023/09/15 10:05:44;;;;;;;1.42;1.33;;;;;;;21.03;54.21;101764.88;4993084;28;20093;-56
2023/09/15 10:08:10;;;;;;;1.30;1.20;;;;;;;21.04;54.11;101766.63;4996570;28;20026;-57
2023/09/15 10:10:40;;;;;;;2.22;1.40;;;;;;;21.04;54.48;101752.22;5005862;28;20093;-56
2023/09/15 10:13:07;;;;;;;1.50;1.30;;;;;;;21.05;54.53;101756.63;4990383;28;20088;-56
2023/09/15 10:15:34;;;;;;;1.40;1.30;;;;;;;21.05;54.38;101748.50;4993663;28;20038;-61
2023/09/15 10:18:01;;;;;;;1.23;1.13;;;;;;;21.03;54.57;101745.94;4994469;28;20125;-56
2023/09/15 10:20:27;;;;;;;1.63;1.40;;;;;;;21.04;54.62;101744.94;4989005;28;20026;-63
2023/09/15 10:22:54;;;;;;;1.60;1.30;;;;;;;21.05;54.62;101734.97;4995501;28;20076;-57
2023/09/15 10:25:21;;;;;;;1.05;1.05;;;;;;;21.04;54.41;101731.41;4993987;28;20044;-56
2023/09/15 10:27:46;;;;;;;1.40;1.27;;;;;;;21.04;54.29;101727.84;4990585;28;20035;-57
2023/09/15 10:30:12;;;;;;;1.13;1.02;;;;;;;21.05;54.31;101724.97;4995893;28;20083;-57
2023/09/15 10:32:39;;;;;;;2.17;1.65;;;;;;;21.05;54.57;101719.56;4993153;28;20042;-56
2023/09/15 10:35:05;;;;;;;1.25;1.15;;;;;;;21.06;54.32;101725.84;4988030;28;20034;-56
2023/09/15 10:37:33;;;;;;;2.03;1.45;;;;;;;21.07;54.36;101728.38;4997000;28;20034;-57
2023/09/15 10:39:59;;;;;;;1.55;1.30;;;;;;;21.07;54.83;101728.38;4987143;28;20532;-57
2023/09/15 10:42:26;;;;;;;1.23;1.13;;;;;;;21.07;54.26;101714.84;4990367;28;20543;-56
2023/09/15 10:44:52;;;;;;;1.63;1.45;;;;;;;21.07;54.71;101703.19;4989160;28;20030;-56
2023/09/15 10:47:18;;;;;;;1.30;1.20;;;;;;;21.07;54.29;101705.88;4989032;28;20089;-57
2023/09/15 10:49:52;;;;;;;1.75;1.33;;;;;;;21.07;54.51;101712.16;4989786;28;20122;-56
2023/09/15 10:52:18;;;;;;;1.13;1.05;;;;;;;21.08;54.47;101716.56;4987148;28;20034;-56
2023/09/15 10:54:44;;;;;;;1.30;1.20;;;;;;;21.08;54.61;101707.59;4989906;28;20045;-56
2023/09/15 10:57:09;;;;;;;1.40;1.30;;;;;;;21.08;54.89;101708.44;5003037;28;20042;-57
2023/09/15 10:59:35;;;;;;;1.52;1.40;;;;;;;21.08;54.29;101703.03;4987804;28;20096;-56
2023/09/15 11:02:01;;;;;;;1.55;1.20;;;;;;;21.09;54.44;101701.19;4989605;28;20037;-57
2023/09/15 11:04:28;;;;;;;1.30;1.20;;;;;;;21.09;55.10;101698.47;4989240;28;20037;-56
2023/09/15 11:06:54;;;;;;;1.30;1.20;;;;;;;21.11;54.72;101698.31;4989088;28;20031;-57
2023/09/15 11:09:21;;;;;;;1.48;1.38;;;;;;;21.11;54.60;101695.63;4990830;28;20486;-57
2023/09/15 11:11:48;;;;;;;1.40;1.30;;;;;;;21.11;55.02;101692.91;4987812;28;20031;-57
2023/09/15 11:14:15;;;;;;;1.13;1.02;;;;;;;21.11;54.76;101690.19;4990542;28;20034;-57
2023/09/15 11:16:51;;;;;;;1.42;1.33;;;;;;;21.12;54.71;101689.22;4989745;28;20033;-57
2023/09/15 11:19:18;;;;;;;1.58;1.40;;;;;;;21.11;54.72;101688.34;4985461;28;20425;-57
2023/09/15 11:21:47;;;;;;;1.42;1.13;;;;;;;21.12;54.88;101681.94;4985439;28;20102;-57